sensor_id;sensor_type;location;lat;lon;timestamp;pressure;altitude;pressure_sealevel;temperature;humidity
75290;BME280;63883;48.996;20.804;2024-03-02T00:00:36;96107.75;;;6.16;100.00
75290;BME280;63883;48.996;20.804;2024-03-02T00:03:22;96105.13;;;6.20;100.00
75290;BME280;63883;48.996;20.804;2024-03-02T00:05:49;96097.38;;;6.30;100.00
75290;BME280;63883;48.996;20.804;2024-03-02T00:08:22;96095.88;;;6.19;100.00
75290;BME280;63883;48.996;20.804;2024-03-02T00:10:49;96093.34;;;6.19;100.00
75290;BME280;63883;48.996;20.804;2024-03-02T00:13:15;96094.25;;;6.15;100.00
75290;BME280;63883;48.996;20.804;2024-03-02T00:15:46;96093.63;;;6.03;100.00
75290;BME280;63883;48.996;20.804;2024-03-02T00:18:18;96096.03;;;6.10;100.00
75290;BME280;63883;48.996;20.804;2024-03-02T00:20:44;96095.09;;;6.14;100.00
75290;BME280;63883;48.996;20.804;2024-03-02T00:23:14;96090.81;;;6.19;100.00
75290;BME280;63883;48.996;20.804;2024-03-02T00:25:43;96090.69;;;6.25;100.00
75290;BME280;63883;48.996;20.804;2024-03-02T00:31:04;96085.06;;;6.10;100.00
75290;BME280;63883;48.996;20.804;2024-03-02T00:33:33;96087.59;;;6.11;100.00
75290;BME280;63883;48.996;20.804;2024-03-02T00:35:59;96084.97;;;6.16;100.00
75290;BME280;63883;48.996;20.804;2024-03-02T00:38:29;96084.06;;;6.18;100.00
75290;BME280;63883;48.996;20.804;2024-03-02T00:40:58;96085.94;;;6.07;100.00
75290;BME280;63883;48.996;20.804;2024-03-02T00:43:42;96085.22;;;6.01;100.00
75290;BME280;63883;48.996;20.804;2024-03-02T00:46:12;96091.94;;;6.03;100.00
75290;BME280;63883;48.996;20.804;2024-03-02T00:48:40;96080.03;;;6.08;100.00
75290;BME280;63883;48.996;20.804;2024-03-02T00:51:10;96077.53;;;6.05;100.00
75290;BME280;63883;48.996;20.804;2024-03-02T00:53:36;96081.84;;;6.02;100.00
75290;BME280;63883;48.996;20.804;2024-03-02T00:56:02;96080.88;;;6.07;100.00
75290;BME280;63883;48.996;20.804;2024-03-02T00:58:28;96077.38;;;6.14;100.00
75290;BME280;63883;48.996;20.804;2024-03-02T01:00:54;96079.09;;;6.12;100.00
75290;BME280;63883;48.996;20.804;2024-03-02T01:03:19;96082.56;;;6.08;100.00
75290;BME280;63883;48.996;20.804;2024-03-02T01:05:45;96078.34;;;6.07;100.00
75290;BME280;63883;48.996;20.804;2024-03-02T01:08:11;96080.13;;;6.04;100.00
75290;BME280;63883;48.996;20.804;2024-03-02T01:10:37;96072.53;;;6.02;100.00
75290;BME280;63883;48.996;20.804;2024-03-02T01:13:02;96077.50;;;6.08;100.00
75290;BME280;63883;48.996;20.804;2024-03-02T01:15:28;96077.66;;;5.99;100.00
75290;BME280;63883;48.996;20.804;2024-03-02T01:17:54;96076.03;;;5.97;100.00
75290;BME280;63883;48.996;20.804;2024-03-02T01:20:20;96071.13;;;5.87;100.00
75290;BME280;63883;48.996;20.804;2024-03-02T01:22:45;96073.63;;;5.86;100.00
75290;BME280;63883;48.996;20.804;2024-03-02T01:25:11;96071.84;;;5.94;100.00
75290;BME280;63883;48.996;20.804;2024-03-02T01:27:36;96068.56;;;5.86;100.00
75290;BME280;63883;48.996;20.804;2024-03-02T01:30:02;96069.34;;;5.91;100.00
75290;BME280;63883;48.996;20.804;2024-03-02T01:32:28;96070.91;;;5.98;100.00
75290;BME280;63883;48.996;20.804;2024-03-02T01:34:54;96067.75;;;5.85;100.00
75290;BME280;63883;48.996;20.804;2024-03-02T01:37:19;96061.91;;;5.83;100.00
75290;BME280;63883;48.996;20.804;2024-03-02T01:39:45;96057.59;;;5.87;100.00
75290;BME280;63883;48.996;20.804;2024-03-02T01:42:10;96058.44;;;5.86;100.00
75290;BME280;63883;48.996;20.804;2024-03-02T01:44:37;96042.41;;;5.90;100.00
75290;BME280;63883;48.996;20.804;2024-03-02T01:47:02;96047.69;;;5.75;100.00
75290;BME280;63883;48.996;20.804;2024-03-02T01:49:28;96040.84;;;5.81;100.00
75290;BME280;63883;48.996;20.804;2024-03-02T01:51:54;96039.38;;;5.68;100.00
75290;BME280;63883;48.996;20.804;2024-03-02T01:54:20;96042.63;;;5.75;100.00
75290;BME280;63883;48.996;20.804;2024-03-02T01:56:45;96039.38;;;5.68;100.00
75290;BME280;63883;48.996;20.804;2024-03-02T01:59:11;96046.31;;;5.56;100.00
75290;BME280;63883;48.996;20.804;2024-03-02T02:01:38;96042.91;;;5.58;100.00
75290;BME280;63883;48.996;20.804;2024-03-02T02:04:04;96047.25;;;5.50;100.00
75290;BME280;63883;48.996;20.804;2024-03-02T02:06:32;96043.84;;;5.54;100.00
75290;BME280;63883;48.996;20.804;2024-03-02T02:08:58;96036.31;;;5.48;100.00
75290;BME280;63883;48.996;20.804;2024-03-02T02:11:24;96038.13;;;5.41;100.00
75290;BME280;63883;48.996;20.804;2024-03-02T02:13:50;96033.97;;;5.39;100.00
75290;BME280;63883;48.996;20.804;2024-03-02T02:16:16;96031.31;;;5.46;100.00
75290;BME280;63883;48.996;20.804;2024-03-02T02:18:41;96032.16;;;5.47;100.00
75290;BME280;63883;48.996;20.804;2024-03-02T02:21:07;96026.31;;;5.42;100.00
75290;BME280;63883;48.996;20.804;2024-03-02T02:23:33;96029.06;;;5.28;100.00
75290;BME280;63883;48.996;20.804;2024-03-02T02:25:59;96031.59;;;5.28;100.00
75290;BME280;63883;48.996;20.804;2024-03-02T02:28:25;96029.06;;;5.27;100.00
75290;BME280;63883;48.996;20.804;2024-03-02T02:30:50;96034.22;;;5.22;100.00
75290;BME280;63883;48.996;20.804;2024-03-02T02:33:16;96033.47;;;5.17;100.00
75290;BME280;63883;48.996;20.804;2024-03-02T02:35:42;96029.34;;;5.10;100.00
75290;BME280;63883;48.996;20.804;2024-03-02T02:38:08;96023.63;;;4.97;100.00
75290;BME280;63883;48.996;20.804;2024-03-02T02:40:33;96023.69;;;4.94;100.00
75290;BME280;63883;48.996;20.804;2024-03-02T02:42:59;96029.56;;;4.96;100.00
75290;BME280;63883;48.996;20.804;2024-03-02T02:45:25;96031.31;;;4.91;100.00
75290;BME280;63883;48.996;20.804;2024-03-02T02:47:51;96027.19;;;4.83;100.00
75290;BME280;63883;48.996;20.804;2024-03-02T02:50:16;96028.09;;;4.82;100.00
75290;BME280;63883;48.996;20.804;2024-03-02T02:52:43;96034.03;;;4.78;100.00
75290;BME280;63883;48.996;20.804;2024-03-02T02:55:10;96029.91;;;4.69;100.00
75290;BME280;63883;48.996;20.804;2024-03-02T02:57:37;96030.84;;;4.62;100.00
75290;BME280;63883;48.996;20.804;2024-03-02T03:00:08;96025.78;;;4.63;100.00
75290;BME280;63883;48.996;20.804;2024-03-02T03:02:43;96028.31;;;4.63;100.00
75290;BME280;63883;48.996;20.804;2024-03-02T03:05:11;96025.03;;;4.58;100.00
75290;BME280;63883;48.996;20.804;2024-03-02T03:07:37;96023.34;;;4.57;100.00
75290;BME280;63883;48.996;20.804;2024-03-02T03:10:05;96025.88;;;4.57;100.00
75290;BME280;63883;48.996;20.804;2024-03-02T03:12:32;96026.69;;;4.59;100.00
75290;BME280;63883;48.996;20.804;2024-03-02T03:14:58;96030.03;;;4.61;100.00
75290;BME280;63883;48.996;20.804;2024-03-02T03:17:24;96034.31;;;4.55;100.00
75290;BME280;63883;48.996;20.804;2024-03-02T03:19:50;96037.66;;;4.58;100.00
75290;BME280;63883;48.996;20.804;2024-03-02T03:22:16;96038.50;;;4.56;100.00
75290;BME280;63883;48.996;20.804;2024-03-02T03:24:42;96025.97;;;4.51;100.00
75290;BME280;63883;48.996;20.804;2024-03-02T03:27:07;96026.81;;;4.49;100.00
75290;BME280;63883;48.996;20.804;2024-03-02T03:29:33;96024.31;;;4.49;100.00
75290;BME280;63883;48.996;20.804;2024-03-02T03:31:59;96018.47;;;4.45;100.00
75290;BME280;63883;48.996;20.804;2024-03-02T03:34:24;96015.97;;;4.42;100.00
75290;BME280;63883;48.996;20.804;2024-03-02T03:36:50;96013.44;;;4.44;100.00
75290;BME280;63883;48.996;20.804;2024-03-02T03:39:15;96011.78;;;4.41;100.00
75290;BME280;63883;48.996;20.804;2024-03-02T03:41:41;96011.81;;;4.38;100.00
75290;BME280;63883;48.996;20.804;2024-03-02T03:44:07;96011.91;;;4.32;100.00
75290;BME280;63883;48.996;20.804;2024-03-02T03:46:33;96015.22;;;4.34;100.00
75290;BME280;63883;48.996;20.804;2024-03-02T03:48:58;96014.38;;;4.35;100.00
75290;BME280;63883;48.996;20.804;2024-03-02T03:51:24;96020.34;;;4.29;100.00
75290;BME280;63883;48.996;20.804;2024-03-02T03:53:50;96022.03;;;4.30;100.00
75290;BME280;63883;48.996;20.804;2024-03-02T03:56:15;96014.47;;;4.27;100.00
75290;BME280;63883;48.996;20.804;2024-03-02T03:58:41;96022.09;;;4.23;100.00
75290;BME280;63883;48.996;20.804;2024-03-02T04:01:07;96028.75;;;4.31;100.00
75290;BME280;63883;48.996;20.804;2024-03-02T04:03:32;96019.44;;;4.33;100.00
75290;BME280;63883;48.996;20.804;2024-03-02T04:05:58;96015.28;;;4.31;100.00
75290;BME280;63883;48.996;20.804;2024-03-02T04:08:24;96014.38;;;4.35;100.00
75290;BME280;63883;48.996;20.804;2024-03-02T04:10:50;96021.19;;;4.30;100.00
75290;BME280;63883;48.996;20.804;2024-03-02T04:13:16;96020.41;;;4.23;100.00
75290;BME280;63883;48.996;20.804;2024-03-02T04:15:41;96029.69;;;4.23;100.00
75290;BME280;63883;48.996;20.804;2024-03-02T04:18:07;96028.00;;;4.22;100.00
75290;BME280;63883;48.996;20.804;2024-03-02T04:20:33;96034.66;;;4.26;100.00
75290;BME280;63883;48.996;20.804;2024-03-02T04:22:58;96027.00;;;4.35;100.00
75290;BME280;63883;48.996;20.804;2024-03-02T04:25:24;96030.38;;;4.32;100.00
75290;BME280;63883;48.996;20.804;2024-03-02T04:27:49;96025.47;;;4.25;100.00
75290;BME280;63883;48.996;20.804;2024-03-02T04:30:15;96035.56;;;4.25;100.00
75290;BME280;63883;48.996;20.804;2024-03-02T04:32:41;96028.81;;;4.24;100.00
75290;BME280;63883;48.996;20.804;2024-03-02T04:35:07;96037.28;;;4.18;100.00
75290;BME280;63883;48.996;20.804;2024-03-02T04:37:36;96029.63;;;4.26;100.00
75290;BME280;63883;48.996;20.804;2024-03-02T04:40:01;96023.78;;;4.24;100.00
75290;BME280;63883;48.996;20.804;2024-03-02T04:42:27;96017.88;;;4.25;100.00
75290;BME280;63883;48.996;20.804;2024-03-02T04:44:53;96009.44;;;4.26;100.00
75290;BME280;63883;48.996;20.804;2024-03-02T04:47:18;96014.47;;;4.27;100.00
75290;BME280;63883;48.996;20.804;2024-03-02T04:49:44;96019.59;;;4.20;100.00
75290;BME280;63883;48.996;20.804;2024-03-02T04:52:10;96021.22;;;4.25;100.00
75290;BME280;63883;48.996;20.804;2024-03-02T04:54:35;96022.06;;;4.26;100.00
75290;BME280;63883;48.996;20.804;2024-03-02T04:57:21;96018.56;;;4.36;100.00
75290;BME280;63883;48.996;20.804;2024-03-02T04:59:47;96026.97;;;4.38;100.00
75290;BME280;63883;48.996;20.804;2024-03-02T05:02:12;96027.81;;;4.37;100.00
75290;BME280;63883;48.996;20.804;2024-03-02T05:04:39;96038.78;;;4.33;100.00
75290;BME280;63883;48.996;20.804;2024-03-02T05:07:05;96038.03;;;4.28;100.00
75290;BME280;63883;48.996;20.804;2024-03-02T05:09:31;96037.19;;;4.29;100.00
75290;BME280;63883;48.996;20.804;2024-03-02T05:11:56;96032.94;;;4.31;100.00
75290;BME280;63883;48.996;20.804;2024-03-02T05:14:43;96031.19;;;4.36;100.00
75290;BME280;63883;48.996;20.804;2024-03-02T05:17:08;96033.63;;;4.44;100.00
75290;BME280;63883;48.996;20.804;2024-03-02T05:19:34;96039.44;;;4.50;100.00
75290;BME280;63883;48.996;20.804;2024-03-02T05:21:59;96042.72;;;4.55;100.00
75290;BME280;63883;48.996;20.804;2024-03-02T05:24:25;96046.84;;;4.62;100.00
75290;BME280;63883;48.996;20.804;2024-03-02T05:26:54;96041.06;;;4.54;100.00
75290;BME280;63883;48.996;20.804;2024-03-02T05:29:19;96036.84;;;4.55;100.00
75290;BME280;63883;48.996;20.804;2024-03-02T05:31:46;96038.59;;;4.50;100.00
75290;BME280;63883;48.996;20.804;2024-03-02T05:34:12;96037.75;;;4.49;100.00
75290;BME280;63883;48.996;20.804;2024-03-02T05:36:37;96032.72;;;4.49;100.00
75290;BME280;63883;48.996;20.804;2024-03-02T05:39:05;96038.53;;;4.54;100.00
75290;BME280;63883;48.996;20.804;2024-03-02T05:41:31;96040.25;;;4.54;100.00
75290;BME280;63883;48.996;20.804;2024-03-02T05:43:57;96040.94;;;4.63;100.00
75290;BME280;63883;48.996;20.804;2024-03-02T05:46:23;96046.66;;;4.78;100.00
75290;BME280;63883;48.996;20.804;2024-03-02T05:48:49;96052.72;;;4.66;100.00
75290;BME280;63883;48.996;20.804;2024-03-02T05:51:14;96051.00;;;4.68;100.00
75290;BME280;63883;48.996;20.804;2024-03-02T05:53:40;96053.50;;;4.69;100.00
75290;BME280;63883;48.996;20.804;2024-03-02T05:56:05;96051.69;;;4.78;100.00
75290;BME280;63883;48.996;20.804;2024-03-02T05:58:31;96043.16;;;4.86;100.00
75290;BME280;63883;48.996;20.804;2024-03-02T06:01:03;96049.16;;;4.79;100.00
75290;BME280;63883;48.996;20.804;2024-03-02T06:03:30;96054.28;;;4.75;100.00
75290;BME280;63883;48.996;20.804;2024-03-02T06:05:56;96055.06;;;4.77;100.00
75290;BME280;63883;48.996;20.804;2024-03-02T06:08:21;96055.06;;;4.78;100.00
75290;BME280;63883;48.996;20.804;2024-03-02T06:10:47;96059.91;;;4.95;100.00
75290;BME280;63883;48.996;20.804;2024-03-02T06:13:13;96075.00;;;4.98;100.00
75290;BME280;63883;48.996;20.804;2024-03-02T06:15:39;96063.47;;;4.80;100.00
75290;BME280;63883;48.996;20.804;2024-03-02T06:18:04;96061.81;;;4.76;100.00
75290;BME280;63883;48.996;20.804;2024-03-02T06:20:32;96068.41;;;4.89;100.00
75290;BME280;63883;48.996;20.804;2024-03-02T06:22:57;96066.75;;;4.85;100.00
75290;BME280;63883;48.996;20.804;2024-03-02T06:25:23;96054.13;;;4.84;100.00
75290;BME280;63883;48.996;20.804;2024-03-02T06:27:49;96058.31;;;4.86;100.00
75290;BME280;63883;48.996;20.804;2024-03-02T06:30:14;96060.84;;;4.88;100.00
75290;BME280;63883;48.996;20.804;2024-03-02T06:32:40;96058.25;;;4.92;100.00
75290;BME280;63883;48.996;20.804;2024-03-02T06:35:06;96054.78;;;4.99;100.00
75290;BME280;63883;48.996;20.804;2024-03-02T06:37:36;96051.28;;;5.06;100.00
75290;BME280;63883;48.996;20.804;2024-03-02T06:40:03;96054.66;;;5.07;100.00
75290;BME280;63883;48.996;20.804;2024-03-02T06:42:29;96057.09;;;5.15;100.00
75290;BME280;63883;48.996;20.804;2024-03-02T06:44:59;96061.94;;;5.27;100.00
75290;BME280;63883;48.996;20.804;2024-03-02T06:47:25;96054.22;;;5.36;100.00
75290;BME280;63883;48.996;20.804;2024-03-02T06:49:50;96053.13;;;5.54;100.00
75290;BME280;63883;48.996;20.804;2024-03-02T06:52:16;96061.69;;;5.45;100.00
75290;BME280;63883;48.996;20.804;2024-03-02T06:54:42;96064.09;;;5.51;100.00
75290;BME280;63883;48.996;20.804;2024-03-02T06:57:08;96071.59;;;5.56;100.00
75290;BME280;63883;48.996;20.804;2024-03-02T06:59:33;96080.69;;;5.69;100.00
75290;BME280;63883;48.996;20.804;2024-03-02T07:01:59;96075.34;;;5.85;100.00
75290;BME280;63883;48.996;20.804;2024-03-02T07:04:25;96080.16;;;6.01;100.00
75290;BME280;63883;48.996;20.804;2024-03-02T07:06:50;96083.66;;;5.94;100.00
75290;BME280;63883;48.996;20.804;2024-03-02T07:09:17;96085.94;;;6.07;100.00
75290;BME280;63883;48.996;20.804;2024-03-02T07:11:43;96083.56;;;5.98;100.00
75290;BME280;63883;48.996;20.804;2024-03-02T07:14:08;96086.84;;;6.05;100.00
75290;BME280;63883;48.996;20.804;2024-03-02T07:16:37;96087.13;;;5.88;100.00
75290;BME280;63883;48.996;20.804;2024-03-02T07:19:03;96085.59;;;5.78;100.00
75290;BME280;63883;48.996;20.804;2024-03-02T07:21:29;96084.72;;;5.79;100.00
75290;BME280;63883;48.996;20.804;2024-03-02T07:23:55;96082.19;;;5.79;100.00
75290;BME280;63883;48.996;20.804;2024-03-02T07:26:21;96078.81;;;5.80;100.00
75290;BME280;63883;48.996;20.804;2024-03-02T07:28:48;96071.09;;;5.86;100.00
75290;BME280;63883;48.996;20.804;2024-03-02T07:31:14;96080.19;;;5.99;100.00
75290;BME280;63883;48.996;20.804;2024-03-02T07:33:40;96084.06;;;6.18;100.00
75290;BME280;63883;48.996;20.804;2024-03-02T07:36:07;96084.00;;;6.21;100.00
75290;BME280;63883;48.996;20.804;2024-03-02T07:38:32;96084.88;;;6.20;100.00
75290;BME280;63883;48.996;20.804;2024-03-02T07:41:00;96089.03;;;6.24;100.00
75290;BME280;63883;48.996;20.804;2024-03-02T07:43:26;96070.47;;;6.22;100.00
75290;BME280;63883;48.996;20.804;2024-03-02T07:45:52;96080.03;;;6.53;100.00
75290;BME280;63883;48.996;20.804;2024-03-02T07:48:18;96084.81;;;6.68;100.00
75290;BME280;63883;48.996;20.804;2024-03-02T07:50:44;96086.38;;;6.74;100.00
75290;BME280;63883;48.996;20.804;2024-03-02T07:53:10;96085.94;;;6.93;100.00
75290;BME280;63883;48.996;20.804;2024-03-02T07:55:35;96090.97;;;6.96;100.00
75290;BME280;63883;48.996;20.804;2024-03-02T07:58:01;96096.84;;;6.98;100.00
75290;BME280;63883;48.996;20.804;2024-03-02T08:00:27;96091.69;;;7.01;100.00
75290;BME280;63883;48.996;20.804;2024-03-02T08:02:53;96088.66;;;7.26;100.00
75290;BME280;63883;48.996;20.804;2024-03-02T08:05:21;96090.03;;;7.39;100.00
75290;BME280;63883;48.996;20.804;2024-03-02T08:07:46;96097.13;;;7.25;100.00
75290;BME280;63883;48.996;20.804;2024-03-02T08:10:12;96084.63;;;7.16;100.00
75290;BME280;63883;48.996;20.804;2024-03-02T08:12:38;96091.84;;;7.34;100.00
75290;BME280;63883;48.996;20.804;2024-03-02T08:15:05;96099.41;;;7.35;100.00
75290;BME280;63883;48.996;20.804;2024-03-02T08:17:31;96096.13;;;7.30;100.00
75290;BME280;63883;48.996;20.804;2024-03-02T08:19:57;96097.03;;;7.28;100.00
75290;BME280;63883;48.996;20.804;2024-03-02T08:22:23;96093.09;;;7.53;100.00
75290;BME280;63883;48.996;20.804;2024-03-02T08:24:51;96103.69;;;7.70;100.00
75290;BME280;63883;48.996;20.804;2024-03-02T08:27:16;96101.84;;;7.75;100.00
75290;BME280;63883;48.996;20.804;2024-03-02T08:29:42;96106.78;;;7.81;100.00
75290;BME280;63883;48.996;20.804;2024-03-02T08:32:08;96098.31;;;7.82;100.00
75290;BME280;63883;48.996;20.804;2024-03-02T08:34:34;96114.44;;;7.80;100.00
75290;BME280;63883;48.996;20.804;2024-03-02T08:37:03;96098.28;;;7.84;100.00
75290;BME280;63883;48.996;20.804;2024-03-02T08:39:29;96107.03;;;7.71;100.00
75290;BME280;63883;48.996;20.804;2024-03-02T08:41:55;96108.63;;;7.75;100.00
75290;BME280;63883;48.996;20.804;2024-03-02T08:44:21;96102.00;;;7.69;100.00
75290;BME280;63883;48.996;20.804;2024-03-02T08:46:47;96114.59;;;7.72;100.00
75290;BME280;63883;48.996;20.804;2024-03-02T08:49:13;96106.16;;;7.72;100.00
75290;BME280;63883;48.996;20.804;2024-03-02T08:51:38;96107.59;;;7.83;100.00
75290;BME280;63883;48.996;20.804;2024-03-02T08:54:04;96113.34;;;7.90;100.00
75290;BME280;63883;48.996;20.804;2024-03-02T08:56:31;96112.56;;;7.87;100.00
75290;BME280;63883;48.996;20.804;2024-03-02T08:58:57;96112.56;;;7.87;100.00
75290;BME280;63883;48.996;20.804;2024-03-02T09:01:22;96119.00;;;8.00;100.00
75290;BME280;63883;48.996;20.804;2024-03-02T09:03:49;96115.69;;;7.98;100.00
75290;BME280;63883;48.996;20.804;2024-03-02T09:06:15;96114.28;;;7.86;100.00
75290;BME280;63883;48.996;20.804;2024-03-02T09:08:43;96115.19;;;7.85;100.00
75290;BME280;63883;48.996;20.804;2024-03-02T09:11:09;96114.16;;;7.92;100.00
75290;BME280;63883;48.996;20.804;2024-03-02T09:13:36;96115.19;;;7.85;100.00
75290;BME280;63883;48.996;20.804;2024-03-02T09:16:03;96118.78;;;8.09;100.00
75290;BME280;63883;48.996;20.804;2024-03-02T09:18:29;96117.06;;;8.11;100.00
75290;BME280;63883;48.996;20.804;2024-03-02T09:20:55;96115.69;;;8.33;100.00
75290;BME280;63883;48.996;20.804;2024-03-02T09:23:21;96118.41;;;8.24;100.00
75290;BME280;63883;48.996;20.804;2024-03-02T09:25:46;96122.44;;;8.34;100.00
75290;BME280;63883;48.996;20.804;2024-03-02T09:28:13;96124.13;;;8.34;100.00
75290;BME280;63883;48.996;20.804;2024-03-02T09:30:40;96122.66;;;8.23;100.00
75290;BME280;63883;48.996;20.804;2024-03-02T09:33:06;96127.03;;;8.18;100.00
75290;BME280;63883;48.996;20.804;2024-03-02T09:35:32;96130.25;;;8.25;100.00
75290;BME280;63883;48.996;20.804;2024-03-02T09:37:58;96131.03;;;8.27;100.00
75290;BME280;63883;48.996;20.804;2024-03-02T09:40:23;96129.09;;;8.38;100.00
75290;BME280;63883;48.996;20.804;2024-03-02T09:42:49;96129.19;;;8.35;100.00
75290;BME280;63883;48.996;20.804;2024-03-02T09:45:22;96131.41;;;8.47;100.00
75290;BME280;63883;48.996;20.804;2024-03-02T09:47:48;96130.50;;;8.79;100.00
75290;BME280;63883;48.996;20.804;2024-03-02T09:50:14;96128.38;;;8.95;100.00
75290;BME280;63883;48.996;20.804;2024-03-02T09:52:41;96126.06;;;8.87;100.00
75290;BME280;63883;48.996;20.804;2024-03-02T09:55:08;96132.63;;;8.94;100.00
75290;BME280;63883;48.996;20.804;2024-03-02T09:57:34;96130.50;;;9.10;100.00
75290;BME280;63883;48.996;20.804;2024-03-02T09:59:59;96130.22;;;9.19;100.00
75290;BME280;63883;48.996;20.804;2024-03-02T10:02:25;96134.00;;;9.35;100.00
75290;BME280;63883;48.996;20.804;2024-03-02T10:04:51;96132.59;;;9.53;100.00
75290;BME280;63883;48.996;20.804;2024-03-02T10:07:18;96132.00;;;9.45;100.00
75290;BME280;63883;48.996;20.804;2024-03-02T10:09:48;96135.22;;;9.22;100.00
75290;BME280;63883;48.996;20.804;2024-03-02T10:12:15;96135.94;;;9.27;100.00
75290;BME280;63883;48.996;20.804;2024-03-02T10:14:42;96135.22;;;9.22;100.00
75290;BME280;63883;48.996;20.804;2024-03-02T10:17:13;96135.06;;;9.28;100.00
75290;BME280;63883;48.996;20.804;2024-03-02T10:19:39;96131.91;;;9.20;100.00
75290;BME280;63883;48.996;20.804;2024-03-02T10:22:06;96134.63;;;9.14;100.00
75290;BME280;63883;48.996;20.804;2024-03-02T10:24:44;96133.63;;;9.48;100.00
75290;BME280;63883;48.996;20.804;2024-03-02T10:27:15;96129.75;;;9.64;100.00
75290;BME280;63883;48.996;20.804;2024-03-02T10:29:41;96132.56;;;9.81;100.00
75290;BME280;63883;48.996;20.804;2024-03-02T10:32:11;96128.63;;;9.45;100.00
75290;BME280;63883;48.996;20.804;2024-03-02T10:34:39;96128.16;;;9.60;100.00
75290;BME280;63883;48.996;20.804;2024-03-02T10:37:05;96130.91;;;9.80;100.00
75290;BME280;63883;48.996;20.804;2024-03-02T10:39:31;96130.00;;;9.83;100.00
75290;BME280;63883;48.996;20.804;2024-03-02T10:41:58;96127.47;;;9.55;100.00
75290;BME280;63883;48.996;20.804;2024-03-02T10:44:25;96115.38;;;9.61;100.00
75290;BME280;63883;48.996;20.804;2024-03-02T10:46:52;96119.38;;;9.42;100.00
75290;BME280;63883;48.996;20.804;2024-03-02T10:49:20;96116.44;;;9.54;100.00
75290;BME280;63883;48.996;20.804;2024-03-02T10:51:47;96125.13;;;9.49;100.00
75290;BME280;63883;48.996;20.804;2024-03-02T10:54:13;96124.72;;;9.61;100.00
75290;BME280;63883;48.996;20.804;2024-03-02T10:56:40;96124.34;;;9.73;100.00
75290;BME280;63883;48.996;20.804;2024-03-02T11:01:58;96127.75;;;10.00;100.00
75290;BME280;63883;48.996;20.804;2024-03-02T11:04:27;96121.19;;;9.93;100.00
75290;BME280;63883;48.996;20.804;2024-03-02T11:07:12;96118.75;;;9.88;100.00
75290;BME280;63883;48.996;20.804;2024-03-02T11:09:42;96114.69;;;10.09;100.00
75290;BME280;63883;48.996;20.804;2024-03-02T11:12:19;96115.09;;;9.97;100.00
75290;BME280;63883;48.996;20.804;2024-03-02T11:14:45;96119.06;;;10.05;100.00
75290;BME280;63883;48.996;20.804;2024-03-02T11:17:13;96106.78;;;10.18;100.00
75290;BME280;63883;48.996;20.804;2024-03-02T11:19:41;96099.91;;;10.45;100.00
75290;BME280;63883;48.996;20.804;2024-03-02T11:22:08;96102.34;;;10.73;100.00
75290;BME280;63883;48.996;20.804;2024-03-02T11:24:34;96099.53;;;10.80;100.00
75290;BME280;63883;48.996;20.804;2024-03-02T11:27:05;96090.44;;;10.95;100.00
75290;BME280;63883;48.996;20.804;2024-03-02T11:32:12;96094.84;;;11.15;100.00
75290;BME280;63883;48.996;20.804;2024-03-02T11:34:41;96091.31;;;11.17;100.00
75290;BME280;63883;48.996;20.804;2024-03-02T11:37:11;96095.28;;;11.03;100.00
75290;BME280;63883;48.996;20.804;2024-03-02T11:39:38;96092.88;;;11.21;100.00
75290;BME280;63883;48.996;20.804;2024-03-02T11:42:08;96086.06;;;11.22;100.00
75290;BME280;63883;48.996;20.804;2024-03-02T11:44:37;96086.97;;;10.98;100.00
75290;BME280;63883;48.996;20.804;2024-03-02T11:47:08;96078.94;;;10.85;100.00
75290;BME280;63883;48.996;20.804;2024-03-02T11:52:04;96084.00;;;10.86;100.00
75290;BME280;63883;48.996;20.804;2024-03-02T11:54:33;96082.06;;;11.15;100.00
75290;BME280;63883;48.996;20.804;2024-03-02T11:57:02;96084.59;;;11.38;100.00
75290;BME280;63883;48.996;20.804;2024-03-02T11:59:29;96086.50;;;11.77;100.00
75290;BME280;63883;48.996;20.804;2024-03-02T12:01:55;96085.19;;;11.66;100.00
75290;BME280;63883;48.996;20.804;2024-03-02T12:04:21;96083.06;;;11.78;100.00
75290;BME280;63883;48.996;20.804;2024-03-02T12:06:58;96082.69;;;11.87;100.00
75290;BME280;63883;48.996;20.804;2024-03-02T12:09:27;96081.25;;;12.01;100.00
75290;BME280;63883;48.996;20.804;2024-03-02T12:12:06;96086.66;;;12.55;97.60
75290;BME280;63883;48.996;20.804;2024-03-02T12:14:33;96087.44;;;12.36;99.43
75290;BME280;63883;48.996;20.804;2024-03-02T12:17:00;96077.50;;;12.49;98.94
75290;BME280;63883;48.996;20.804;2024-03-02T12:19:26;96074.09;;;12.09;100.00
75290;BME280;63883;48.996;20.804;2024-03-02T12:21:53;96073.19;;;12.70;100.00
75290;BME280;63883;48.996;20.804;2024-03-02T12:24:21;96073.50;;;13.01;97.96
75290;BME280;63883;48.996;20.804;2024-03-02T12:26:48;96079.47;;;13.20;94.16
75290;BME280;63883;48.996;20.804;2024-03-02T12:29:14;96081.31;;;12.79;95.34
75290;BME280;63883;48.996;20.804;2024-03-02T12:31:42;96079.69;;;13.16;94.32
75290;BME280;63883;48.996;20.804;2024-03-02T12:34:13;96073.13;;;12.71;96.59
75290;BME280;63883;48.996;20.804;2024-03-02T12:36:39;96078.03;;;13.15;95.67
75290;BME280;63883;48.996;20.804;2024-03-02T12:39:08;96084.38;;;13.44;92.48
75290;BME280;63883;48.996;20.804;2024-03-02T12:41:38;96074.81;;;13.47;91.74
75290;BME280;63883;48.996;20.804;2024-03-02T12:44:07;96085.28;;;13.43;89.70
75290;BME280;63883;48.996;20.804;2024-03-02T12:46:33;96085.34;;;13.41;91.69
75290;BME280;63883;48.996;20.804;2024-03-02T12:49:08;96084.50;;;13.41;92.07
75290;BME280;63883;48.996;20.804;2024-03-02T12:51:35;96081.94;;;13.77;89.59
75290;BME280;63883;48.996;20.804;2024-03-02T12:54:01;96075.81;;;13.26;90.38
75290;BME280;63883;48.996;20.804;2024-03-02T12:56:27;96079.53;;;13.19;93.54
75290;BME280;63883;48.996;20.804;2024-03-02T12:58:56;96080.88;;;13.63;89.57